Airfield :
LOGIN :

Register | Disclaimer

   EN    FR    IT 

 










Legend :    VFR   Marginal VFR   IFR   Intensive IFR   Very Intensive IFR
Visi :
Ceiling :
>= 8 km
>= 3000ft
5 to 8 km
1000 to 3000 ft
1500m to 5 km
500 to 1000 ft
800 to 1500m
200 to 500 ft
< 800m
< 200 ft
Symbols :   Thunderstorms  Fog  Heavy snow  Heavy precipitations  Wind > 20 kt
SIGMETs :     Misc.  Thunderstorms  Icing  Turbulence  Mountain Waves  Volcanic Ashes






- Airport Elevation : 242 ft
- IATA code : DUB


EIDW - Dublin

CURRENT METAR :
  • 291830Z 20014G24KT 170V230 9999 SCT010 BKN020 15/12 Q0999 NOSIG

EXPIRED METARs :
  • 291800Z 21015G26KT 170V230 9999 -RA SCT010 BKN020 14/12 Q0999 NOSIG
  • 291730Z 20013G26KT 170V230 9999 -RA SCT010 BKN020 14/12 Q0999 NOSIG
  • 291700Z 21013KT 9999 -RA SCT010 BKN020 14/12 Q0999 NOSIG
  • 291630Z 20014G24KT 140V240 9999 -RA SCT010 BKN020 14/12 Q1000 NOSIG
  • 291600Z 21015G27KT 170V250 9999 SCT010 BKN020 15/12 Q1000 NOSIG

TAF TAF EIDW
Valid from the 29 at 18:00 until the 30 at 18:00 UTC


291700Z 2918/3018 21014KT 9999 SCT010 BKN030
TEMPO 2918/3001 21017G28KT
TEMPO 2918/3006 -RA BKN012
BECMG 3001/3003 25012KT
PROB40
TEMPO 3003/3006 4000 -RADZ BKN008
BECMG 3004/3006 30010KT
BECMG 3008/3010 27008KT
BECMG 3016/3018 14005KT



MET'MAP, your aeronautical weather chart ! - Copyright ORBIFLY December 2007 - Disclaimer

ORBIFLY MET'MAP TEAM :

Programming & Development : Alexandra Zaïnal
Concept & original design : Baudouin d'Aumeries
Assistance for programming : Marc-Olivier Méhu
Technical & hardware support : Manuel Goepfert

Contact : metmap@orbifly.com




SOURCES & CREDITS :

   NOAA